Data for 06/03/2013

Time Sea-Level Adjusted Pressure Absolute Pressure Temperature Relative Humidity Dew Point   
(mb) (inHg) (mb) (inHg) (C) (F) (%) (C) (F)
00:05 1014 29.94 843 24.89 7 44.7 78 3.4 38.2
00:10 1014 29.94 843 24.89 7.1 44.7 76 3.1 37.6
00:15 1014 29.94 843 24.89 7.1 44.7 77 3.3 37.9
00:20 1014 29.94 843 24.89 7 44.7 77 3.3 38
00:25 1014 29.94 843 24.89 7 44.7 78 3.4 38.1
00:30 1014 29.94 843 24.89 7 44.6 77 3.3 37.9
00:35 1014 29.94 843 24.89 7 44.6 77 3.3 38
00:40 1014 29.94 843 24.89 7 44.6 76 3.1 37.6
00:45 1014 29.94 843 24.89 7 44.6 76 3 37.4
00:50 1014 29.94 843 24.89 7 44.6 75 3 37.3
00:55 1014 29.94 843 24.89 6.9 44.5 76 2.9 37.3
01:00 1014 29.94 843 24.89 6.9 44.4 75 2.8 37.1
01:05 1014 29.94 843 24.89 7 44.6 74 2.7 36.9
01:10 1014 29.94 843 24.89 7 44.6 74 2.7 36.9
01:15 1014 29.94 843 24.89 7.1 44.8 73 2.7 36.8
01:20 1014 29.94 843 24.89 7.2 45 74 2.9 37.1
01:25 1014 29.94 843 24.89 7.2 44.9 75 3 37.3
01:30 1014 29.94 843 24.89 7.1 44.8 74 2.9 37.2
01:35 1014 29.94 843 24.89 7.1 44.8 76 3.1 37.7
01:40 1014 29.94 843 24.89 7 44.7 78 3.5 38.2
01:45 1014 29.94 843 24.89 6.9 44.5 79 3.6 38.5
01:50 1014 29.94 843 24.89 6.9 44.4 81 3.9 39
01:55 1014 29.94 843 24.89 6.8 44.3 81 3.9 38.9
02:00 1014 29.94 843 24.89 6.8 44.2 81 3.8 38.8
02:05 1014 29.94 843 24.89 6.8 44.2 80 3.6 38.4
02:10 1014 29.94 843 24.89 6.8 44.3 80 3.6 38.4
02:15 1014 29.94 843 24.89 6.9 44.4 80 3.7 38.6
02:20 1014 29.94 843 24.89 6.8 44.3 80 3.7 38.7
02:25 1014 29.94 843 24.89 6.8 44.3 81 3.8 38.8
02:30 1014 29.94 843 24.89 6.8 44.2 81 3.8 38.9
02:35 1014 29.94 843 24.89 6.7 44.1 82 3.8 38.8
02:40 1014 29.94 843 24.89 6.7 44.1 81 3.7 38.6
02:45 1014 29.94 843 24.89 6.7 44.1 82 3.8 38.9
02:50 1014 29.94 843 24.89 6.8 44.2 82 4 39.1
02:55 1014 29.94 843 24.89 6.7 44.1 83 4 39.2
03:00 1014 29.94 843 24.89 6.6 43.9 83 3.9 39.1
03:05 1014 29.94 843 24.89 6.6 43.9 83 3.9 39
03:10 1014 29.94 843 24.89 6.6 43.9 83 3.9 39.1
03:15 1014 29.94 843 24.89 6.6 43.8 83 3.9 39
03:20 1014 29.94 843 24.89 6.6 43.9 83 3.9 38.9
03:25 1014 29.94 843 24.89 6.6 43.8 82 3.7 38.7
03:30 1014 29.94 843 24.89 6.6 43.9 82 3.8 38.8
03:35 1014 29.94 843 24.89 6.6 43.9 81 3.6 38.4
03:40 1014 29.94 843 24.89 6.6 44 80 3.4 38.1
03:45 1014 29.94 843 24.89 6.7 44 82 3.8 38.8
03:50 1014 29.94 843 24.89 6.6 43.9 81 3.6 38.5
03:55 1014 29.94 843 24.89 6.6 43.9 81 3.7 38.6
04:00 1014 29.94 843 24.89 6.7 44 81 3.6 38.4
04:05 1014 29.94 843 24.89 6.7 44.1 81 3.7 38.6
04:10 1014 29.94 843 24.89 6.7 44 81 3.7 38.6
04:15 1014 29.94 843 24.89 6.6 43.9 82 3.8 38.9
04:20 1014 29.94 843 24.89 6.5 43.8 82 3.7 38.6
04:25 1014 29.94 843 24.89 6.5 43.7 82 3.6 38.5
04:30 1014 29.94 843 24.89 6.4 43.5 83 3.6 38.5
04:35 1014 29.94 843 24.89 6.4 43.4 82 3.6 38.5
04:40 1014 29.94 844 24.92 6.4 43.5 82 3.6 38.4
04:45 1014 29.94 844 24.92 6.5 43.6 81 3.5 38.2
04:50 1014 29.94 844 24.92 6.5 43.7 80 3.3 38
04:55 1014 29.94 844 24.92 6.5 43.7 81 3.5 38.3
05:00 1014 29.94 844 24.92 6.5 43.7 81 3.4 38.1
05:05 1014 29.94 844 24.92 6.5 43.7 79 3.1 37.5
05:10 1014 29.94 844 24.92 6.6 43.8 79 3.2 37.8
05:15 1014 29.94 844 24.92 6.6 43.9 79 3.2 37.8
05:20 1014 29.94 844 24.92 6.6 43.9 78 3.1 37.6
05:25 1014 29.94 844 24.92 6.6 43.9 79 3.3 37.9
05:30 1014 29.94 844 24.92 6.5 43.8 79 3.2 37.8
05:35 1014 29.94 844 24.92 6.6 43.8 80 3.3 38
05:40 1014 29.94 844 24.92 6.6 43.8 78 3.1 37.5
05:45 1014 29.94 844 24.92 6.5 43.8 78 3.1 37.5
05:50 1014 29.94 844 24.92 6.5 43.8 79 3.1 37.6
05:55 1014 29.94 844 24.92 6.6 43.8 78 3.1 37.6
06:00 1015 29.97 844 24.92 6.8 44.2 77 2.9 37.3
06:05 1015 29.97 844 24.92 7 44.5 73 2.4 36.4
06:10 1015 29.97 844 24.92 7.2 45 69 2 35.6
06:15 1015 29.97 844 24.92 7.4 45.4 68 2 35.6
06:20 1015 29.97 844 24.92 7.5 45.4 68 2 35.7
06:25 1015 29.97 844 24.92 7.5 45.5 68 1.9 35.5
06:30 1015 29.97 844 24.92 7.5 45.5 69 2.1 35.8
06:35 1015 29.97 844 24.92 7.5 45.4 68 2 35.6
06:40 1015 29.97 844 24.92 7.5 45.4 70 2.3 36.1
06:45 1015 29.97 844 24.92 7.5 45.4 69 2.2 36
06:50 1015 29.97 844 24.92 7.5 45.5 70 2.5 36.5
06:55 1015 29.97 844 24.92 7.6 45.6 67 1.9 35.3
07:00 1015 29.97 844 24.92 7.6 45.7 67 1.8 35.3
07:05 1015 29.97 844 24.92 7.7 45.9 67 2.1 35.8
07:10 1015 29.97 844 24.92 7.7 45.9 69 2.4 36.3
07:15 1015 29.97 844 24.92 7.8 46 71 2.8 37.1
07:20 1015 29.97 844 24.92 7.7 45.9 73 3.1 37.6
07:25 1015 29.97 844 24.92 7.7 45.9 73 3.1 37.6
07:30 1015 29.97 844 24.92 7.7 45.9 73 3.2 37.7
07:35 1015 29.97 844 24.92 7.8 46 74 3.5 38.3
07:40 1015 29.97 844 24.92 7.8 46 72 3 37.4
07:45 1015 29.97 844 24.92 7.8 46 70 2.6 36.7
07:50 1015 29.97 844 24.92 7.6 45.7 69 2.3 36.1
07:55 1015 29.97 844 24.92 7.5 45.5 68 2 35.7
08:00 1015 29.97 844 24.92 7.5 45.5 69 2.1 35.8
08:05 1015 29.97 844 24.92 7.6 45.8 67 1.9 35.5
08:10 1015 29.97 844 24.92 7.9 46.1 66 1.9 35.4
08:15 1015 29.97 844 24.92 8 46.5 68 2.5 36.6
08:20 1015 29.97 844 24.92 8.4 47 65 2.1 35.8
08:25 1015 29.97 844 24.92 8.6 47.5 66 2.6 36.6
08:30 1015 29.97 844 24.92 8.5 47.4 66 2.5 36.5
08:35 1015 29.97 844 24.92 8.5 47.3 65 2.4 36.2
08:40 1015 29.97 844 24.92 8.7 47.6 64 2.3 36.2
08:45 1015 29.97 844 24.92 8.8 47.8 64 2.4 36.4
08:50 1015 29.97 844 24.92 9 48.2 60 1.8 35.2
08:55 1015 29.97 844 24.92 9.1 48.4 60 1.7 35.1
09:00 1015 29.97 844 24.92 9.2 48.5 62 2.3 36.2
09:05 1015 29.97 844 24.92 9.3 48.8 61 2.2 36
09:10 1015 29.97 844 24.92 9.5 49 59 1.9 35.4
09:15 1015 29.97 844 24.92 9.5 49 58 1.7 35
09:20 1015 29.97 844 24.92 9.5 49.2 60 2.3 36.1
09:25 1015 29.97 844 24.92 9.6 49.3 58 1.7 35.1
09:30 1015 29.97 844 24.92 9.5 49.2 63 2.9 37.3
09:35 1015 29.97 845 24.95 9.5 49.1 62 2.7 36.8
09:40 1015 29.97 845 24.95 9.5 49 62 2.7 36.8
09:45 1015 29.97 844 24.92 9.5 49.1 60 2.1 35.7
09:50 1015 29.97 844 24.92 9.6 49.3 61 2.4 36.4
09:55 1015 29.97 845 24.95 9.9 49.8 60 2.5 36.5
10:00 1015 29.97 845 24.95 10.1 50.1 58 2.2 36
10:05 1015 29.97 845 24.95 10.2 50.3 58 2.4 36.3
10:10 1015 29.97 845 24.95 10.3 50.6 56 2 35.6
10:15 1015 29.97 845 24.95 10.4 50.8 56 2 35.6
10:20 1015 29.97 845 24.95 10.7 51.2 55 2.1 35.7
10:25 1015 29.97 845 24.95 10.8 51.5 52 1.3 34.4
10:30 1015 29.97 845 24.95 10.9 51.6 54 2 35.6
10:35 1015 29.97 844 24.92 11.3 52.4 50 1.3 34.4
10:40 1015 29.97 844 24.92 11.4 52.5 50 1.4 34.6
10:45 1015 29.97 844 24.92 11.4 52.4 51 1.7 35.1
10:50 1015 29.97 844 24.92 11.8 53.2 48 1.2 34.1
10:55 1015 29.97 844 24.92 12.1 53.7 46 0.7 33.3
11:00 1015 29.97 844 24.92 12.1 53.7 46 0.7 33.3
11:05 1015 29.97 844 24.92 12.5 54.4 45 1 33.8
11:10 1015 29.97 844 24.92 12.5 54.5 46 1.2 34.1
11:15 1015 29.97 844 24.92 12.8 55 45 1.3 34.4
11:20 1015 29.97 844 24.92 13.5 56.4 42 1.1 33.9
11:25 1015 29.97 844 24.92 13.2 55.7 46 1.9 35.3
11:30 1015 29.97 845 24.95 13.4 56 43 1.2 34.1
11:35 1015 29.97 845 24.95 13.3 55.9 44 1.4 34.6
11:40 1015 29.97 845 24.95 12.5 54.6 45 0.9 33.7
11:45 1015 29.97 845 24.95 12.4 54.2 46 1.3 34.3
11:50 1015 29.97 845 24.95 12.4 54.3 47 1.6 34.8
11:55 1015 29.97 845 24.95 12.3 54.1 48 1.5 34.8
12:00 1015 29.97 845 24.95 12.2 53.9 47 1.4 34.4
12:05 1015 29.97 845 24.95 12 53.7 56 3.5 38.4
12:10 1016 30 845 24.95 11.3 52.3 62 4.2 39.6
12:15 1016 30 845 24.95 10.6 51.1 65 4.3 39.8
12:20 1016 30 845 24.95 10.4 50.8 65 4.1 39.4
12:25 1016 30 845 24.95 10.5 50.9 63 3.7 38.7
12:30 1016 30 845 24.95 10.7 51.3 62 3.8 38.8
12:35 1016 30 845 24.95 10.7 51.3 65 4.5 40.1
12:40 1016 30 845 24.95 10.5 50.9 64 4 39.1
12:45 1016 30 845 24.95 10.8 51.5 61 3.6 38.5
12:50 1016 30 845 24.95 11.6 52.9 58 3.7 38.7
12:55 1016 30 845 24.95 12.7 54.8 55 4 39.2
13:00 1016 30 845 24.95 13.4 56.1 48 2.7 36.9
13:05 1016 30 845 24.95 13.5 56.3 48 2.7 36.8
13:10 1016 30 845 24.95 14 57.1 48 3.1 37.6
13:15 1016 30 845 24.95 14.4 57.8 45 2.5 36.5
13:20 1016 30 845 24.95 14.2 57.5 45 2.6 36.7
13:25 1016 30 845 24.95 13.6 56.5 52 3.9 39.1
13:30 1016 30 845 24.95 12.6 54.7 56 4.2 39.5
13:35 1016 30 845 24.95 10.3 50.6 70 5.1 41.2
13:40 1016 30 845 24.95 9.6 49.3 67 3.8 38.8
13:45 1016 30 845 24.95 10.6 51.1 66 4.5 40.2
13:50 1016 30 845 24.95 11.8 53.3 69 6.3 43.3
13:55 1016 30 845 24.95 12.6 54.7 61 5.3 41.5
14:00 1016 30 845 24.95 12.5 54.5 60 5 41.1
14:05 1016 30 846 24.98 12.7 54.9 56 4.2 39.6
14:10 1016 30 846 24.98 13 55.4 55 4.2 39.6
14:15 1016 30 845 24.95 13.1 55.7 55 4.5 40.1
14:20 1016 30 845 24.95 13.7 56.6 48 3.1 37.5
14:25 1016 30 846 24.98 14.1 57.4 48 3.4 38.1
14:30 1016 30 845 24.95 14.2 57.5 47 3.2 37.8
14:35 1016 30 845 24.95 14.5 58.1 44 2.5 36.4
14:40 1016 30 845 24.95 14.6 58.4 40 1.4 34.5
14:45 1016 30 845 24.95 14.7 58.5 40 1.2 34.2
14:50 1016 30 846 24.98 15 59.1 41 2.1 35.7
14:55 1016 30 846 24.98 15.1 59.2 44 3.1 37.6
15:00 1017 30.03 846 24.98 14.4 57.9 50 4.3 39.7
15:05 1017 30.03 846 24.98 13.7 56.6 53 4.4 39.8
15:10 1017 30.03 846 24.98 13.3 56 54 4.4 40
15:15 1017 30.03 846 24.98 13.3 56 57 4.9 40.9
15:20 1017 30.03 846 24.98 13.3 55.9 54 4.3 39.7
15:25 1017 30.03 846 24.98 13.7 56.6 55 4.8 40.6
15:30 1017 30.03 846 24.98 12.9 55.3 60 5.3 41.6
15:35 1017 30.03 846 24.98 12.7 54.8 59 4.9 40.9
15:40 1017 30.03 846 24.98 12 53.6 62 5.1 41.1
15:45 1017 30.03 846 24.98 11.4 52.5 65 5 41.1
15:50 1017 30.03 846 24.98 11.4 52.6 64 4.8 40.7
15:55 1017 30.03 847 25.01 11.4 52.6 65 5.2 41.3
16:00 1017 30.03 847 25.01 11.4 52.5 66 5.3 41.5
16:05 1017 30.03 847 25.01 11.3 52.3 64 4.7 40.5
16:10 1018 30.06 847 25.01 11.5 52.8 64 5.1 41.1
16:15 1018 30.06 847 25.01 11.3 52.3 63 4.4 40
16:20 1018 30.06 847 25.01 10.9 51.7 62 4.1 39.3
16:25 1018 30.06 847 25.01 10.9 51.6 62 4 39.2
16:30 1018 30.06 847 25.01 10.7 51.2 62 3.7 38.6
16:35 1018 30.06 847 25.01 10.5 51 63 3.8 38.8
16:40 1018 30.06 847 25.01 10.9 51.6 61 3.8 38.9
16:45 1018 30.06 847 25.01 11.1 52 60 3.7 38.6
16:50 1018 30.06 847 25.01 11.5 52.6 57 3.4 38
16:55 1018 30.06 847 25.01 11.8 53.2 56 3.4 38.2
17:00 1018 30.06 847 25.01 11.9 53.4 57 3.6 38.5
17:05 1018 30.06 847 25.01 11.6 52.9 57 3.4 38.2
17:10 1018 30.06 848 25.04 11.7 53 60 4.1 39.5
17:15 1019 30.09 848 25.04 10.9 51.6 60 3.4 38.1
17:20 1019 30.09 848 25.04 11.4 52.4 58 3.5 38.2
17:25 1019 30.09 848 25.04 11.3 52.4 56 3 37.4
17:30 1019 30.09 848 25.04 10.9 51.6 58 3.1 37.6
17:35 1019 30.09 848 25.04 10.8 51.5 59 3.2 37.7
17:40 1019 30.09 848 25.04 10.6 51 60 3.1 37.6
17:45 1019 30.09 848 25.04 10.4 50.8 61 3.2 37.8
17:50 1019 30.09 848 25.04 10.2 50.4 66 4.2 39.6
17:55 1019 30.09 848 25.04 9.6 49.4 70 4.5 40.2
18:00 1019 30.09 848 25.04 9.4 48.9 72 4.6 40.4
18:05 1019 30.09 848 25.04 9.5 49.1 70 4.4 40
18:10 1019 30.09 848 25.04 9.6 49.4 70 4.5 40.1
18:15 1019 30.09 849 25.07 9.6 49.2 72 4.7 40.5
18:20 1019 30.09 849 25.07 9.6 49.2 68 4 39.3
18:25 1019 30.09 849 25.07 9.4 48.8 69 3.9 39
18:30 1019 30.09 849 25.07 9.2 48.6 71 4.2 39.5
18:35 1020 30.12 849 25.07 9.1 48.4 70 4 39.3
18:40 1020 30.12 849 25.07 9 48.2 72 4.2 39.6
18:45 1020 30.12 849 25.07 8.9 48 72 4.2 39.6
18:50 1020 30.12 849 25.07 8.9 48 71 4 39.2
18:55 1020 30.12 849 25.07 8.8 47.9 72 4.1 39.3
19:00 1020 30.12 849 25.07 8.7 47.7 73 4.2 39.6
19:05 1020 30.12 849 25.07 8.7 47.6 73 4.2 39.5
19:10 1020 30.12 849 25.07 8.6 47.5 75 4.4 39.9
19:15 1020 30.12 849 25.07 8.5 47.4 77 4.8 40.7
19:20 1020 30.12 849 25.07 8.3 47 81 5.2 41.4
19:25 1020 30.12 849 25.07 8.2 46.7 81 5.2 41.3
19:30 1020 30.12 849 25.07 7.9 46.3 81 5 40.9
19:35 1020 30.12 849 25.07 7.8 46.1 83 5.1 41.1
19:40 1020 30.12 849 25.07 7.9 46.2 80 4.7 40.4
19:45 1020 30.12 849 25.07 7.9 46.2 80 4.7 40.4
19:50 1020 30.12 849 25.07 7.9 46.2 82 4.9 40.9
19:55 1020 30.12 849 25.07 7.8 46.1 81 4.7 40.5
20:00 1020 30.12 849 25.07 7.8 46.1 81 4.8 40.7
20:05 1020 30.12 849 25.07 7.8 46 82 5 41
20:10 1020 30.12 849 25.07 7.7 45.9 83 5 41
20:15 1020 30.12 850 25.1 7.8 46 82 4.9 40.8
20:20 1020 30.12 850 25.1 7.8 46 83 5 41
20:25 1020 30.12 850 25.1 7.8 46 83 5.1 41.1
20:30 1020 30.12 850 25.1 7.8 46 82 4.9 40.9
20:35 1020 30.12 850 25.1 7.9 46.1 83 5.1 41.1
20:40 1020 30.12 850 25.1 7.8 46.1 83 5.2 41.4
20:45 1021 30.15 850 25.1 7.9 46.1 83 5.2 41.3
20:50 1021 30.15 850 25.1 7.9 46.2 82 5 41
20:55 1021 30.15 850 25.1 7.9 46.2 83 5.1 41.2
21:00 1021 30.15 850 25.1 7.9 46.2 82 4.9 40.9
21:05 1021 30.15 850 25.1 7.9 46.1 82 5 40.9
21:10 1021 30.15 850 25.1 7.8 46 82 4.9 40.7
21:15 1021 30.15 850 25.1 7.7 45.9 82 4.9 40.8
21:20 1021 30.15 850 25.1 7.6 45.6 83 4.9 40.8
21:25 1021 30.15 850 25.1 7.5 45.5 82 4.7 40.5
21:30 1021 30.15 850 25.1 7.4 45.3 84 4.8 40.7
21:35 1021 30.15 850 25.1 7.3 45.2 83 4.7 40.4
21:40 1021 30.15 850 25.1 7.3 45.1 84 4.8 40.6
21:45 1021 30.15 850 25.1 7.2 44.9 85 4.8 40.7
21:50 1021 30.15 850 25.1 7.1 44.8 85 4.8 40.6
21:55 1021 30.15 850 25.1 7 44.5 85 4.5 40.2
22:00 1021 30.15 850 25.1 6.7 44.1 85 4.4 40
22:05 1021 30.15 850 25.1 6.6 44 87 4.6 40.4
22:10 1021 30.15 850 25.1 6.6 43.8 86 4.3 39.8
22:15 1021 30.15 850 25.1 6.5 43.6 86 4.3 39.7
22:20 1021 30.15 850 25.1 6.3 43.4 86 4.2 39.6
22:25 1021 30.15 850 25.1 6.3 43.3 87 4.3 39.7
22:30 1021 30.15 850 25.1 6.3 43.3 86 4.1 39.4
22:35 1021 30.15 850 25.1 6.2 43.2 86 4.1 39.4
22:40 1021 30.15 850 25.1 6.2 43.1 88 4.3 39.7
22:45 1021 30.15 850 25.1 6 42.8 88 4.2 39.5
22:50 1021 30.15 850 25.1 6 42.8 87 4 39.2
22:55 1021 30.15 850 25.1 5.9 42.7 87 4 39.1
23:00 1021 30.15 850 25.1 5.9 42.6 88 4.1 39.3
23:05 1021 30.15 850 25.1 5.8 42.5 88 4 39.2
23:10 1021 30.15 850 25.1 5.9 42.6 88 4 39.2
23:15 1021 30.15 850 25.1 5.9 42.7 87 3.9 39.1
23:20 1021 30.15 850 25.1 5.9 42.7 87 4 39.2
23:25 1021 30.15 850 25.1 6 42.8 87 4 39.2
23:30 1021 30.15 850 25.1 6.1 42.9 86 3.8 38.9
23:35 1021 30.15 850 25.1 6 42.9 86 3.8 38.9
23:40 1021 30.15 850 25.1 6 42.9 86 3.9 39.1
23:45 1021 30.15 850 25.1 6.1 42.9 87 4 39.2
23:50 1021 30.15 850 25.1 6.1 43 87 4.1 39.3
23:55 1021 30.15 850 25.1 6.2 43.1 86 4.1 39.3
24:00 1021 30.15 850 25.1 6.2 43.2 85 3.9 39